Time;durP1;ratioP1;P1;durP2;ratioP2;P2;SDS_P1;SDS_P2;PMS_P1;PMS_P2;Temp;Humidity;BMP_temperature;BMP_pressure;BME280_temperature;BME280_humidity;BME280_pressure;Samples;Min_cycle;Max_cycle;Signal;HPM_P1;HPM_P2
2023/05/30 00:00:54;;;;;;;3.73;1.87;;;;;;;12.28;55.50;101689.31;4862942;29;20415;-69
2023/05/30 00:03:24;;;;;;;6.00;3.40;;;;;;;12.11;56.46;101691.41;4861938;29;20475;-69
2023/05/30 00:05:55;;;;;;;3.90;2.33;;;;;;;12.21;55.88;101689.22;4867834;29;20439;-69
2023/05/30 00:08:26;;;;;;;3.60;2.13;;;;;;;12.13;55.77;101694.78;4867454;29;21010;-70
2023/05/30 00:10:56;;;;;;;7.83;2.70;;;;;;;12.02;56.48;101689.84;4873883;29;20828;-68
2023/05/30 00:13:28;;;;;;;12.47;1.90;;;;;;;11.86;56.80;101695.53;4859906;29;20845;-69
2023/05/30 00:15:58;;;;;;;4.03;2.93;;;;;;;11.84;57.24;101692.16;4860617;29;20431;-69
2023/05/30 00:18:34;;;;;;;5.80;2.53;;;;;;;12.27;57.62;101691.16;4868953;29;20446;-70
2023/05/30 00:21:06;;;;;;;6.23;2.40;;;;;;;12.61;55.90;101691.28;4864301;29;20456;-70
2023/05/30 00:23:38;;;;;;;6.50;2.00;;;;;;;12.43;55.02;101698.22;4863224;29;20440;-70
2023/05/30 00:26:09;;;;;;;5.47;2.57;;;;;;;12.13;56.33;101694.78;4859466;29;20463;-71
2023/05/30 00:28:39;;;;;;;3.37;2.13;;;;;;;12.16;57.35;101702.53;4863413;29;20522;-70
2023/05/30 00:31:08;;;;;;;6.67;2.47;;;;;;;12.00;56.90;101697.38;4861881;29;20450;-70
2023/05/30 00:33:37;;;;;;;7.83;3.00;;;;;;;12.43;57.53;101698.22;4861497;29;20485;-70
2023/05/30 00:36:08;;;;;;;4.70;2.50;;;;;;;12.17;57.71;101693.38;4861981;29;20449;-70
2023/05/30 00:38:37;;;;;;;6.30;2.10;;;;;;;11.95;57.18;101694.38;4862444;29;20481;-69
2023/05/30 00:41:06;;;;;;;4.80;2.10;;;;;;;12.12;57.99;101693.94;4860564;29;20462;-70
2023/05/30 00:43:37;;;;;;;11.23;2.40;;;;;;;11.82;58.04;101695.06;4863891;29;20483;-67
2023/05/30 00:46:07;;;;;;;4.60;2.17;;;;;;;11.75;58.73;101705.00;4861953;29;20443;-69
2023/05/30 00:48:36;;;;;;;5.63;2.90;;;;;;;11.96;57.87;101701.47;4861882;29;20493;-70
2023/05/30 00:51:10;;;;;;;5.40;2.10;;;;;;;11.85;58.52;101708.25;4864014;29;20521;-70
2023/05/30 00:53:42;;;;;;;4.00;2.60;;;;;;;11.64;58.59;101702.75;4863845;29;20973;-70
2023/05/30 00:56:13;;;;;;;2.80;2.33;;;;;;;11.63;59.03;101696.47;4888956;29;20467;-70
2023/05/30 00:58:42;;;;;;;3.20;2.20;;;;;;;11.97;60.19;101697.72;4863393;29;20854;-70
2023/05/30 01:01:12;;;;;;;7.00;2.80;;;;;;;12.64;58.08;101704.44;4884663;29;20444;-69
2023/05/30 01:03:43;;;;;;;4.30;2.40;;;;;;;12.18;57.65;101700.47;4868736;29;20743;-69
2023/05/30 01:06:14;;;;;;;4.90;1.90;;;;;;;11.73;58.49;101701.63;4868781;29;20442;-71
2023/05/30 01:08:43;;;;;;;5.00;3.40;;;;;;;12.36;58.67;101702.72;4899057;29;20966;-69
2023/05/30 01:11:18;;;;;;;5.93;2.70;;;;;;;12.06;58.42;101704.72;4868969;29;20406;-69
2023/05/30 01:13:57;;;;;;;7.23;2.60;;;;;;;12.60;58.16;101708.59;4882826;29;20475;-69
2023/05/30 01:16:33;;;;;;;4.07;2.77;;;;;;;12.99;57.66;101704.50;4860935;29;21046;-68
2023/05/30 01:19:14;;;;;;;3.70;2.70;;;;;;;12.51;57.14;101701.63;4860915;29;20487;-70
2023/05/30 01:21:46;;;;;;;5.30;2.83;;;;;;;12.76;57.81;101710.19;4861157;29;20915;-68
2023/05/30 01:24:22;;;;;;;8.27;4.27;;;;;;;12.65;57.80;101702.56;4863563;29;20873;-69
2023/05/30 01:27:06;;;;;;;8.83;4.70;;;;;;;12.91;57.53;101705.53;4860719;29;20530;-69
2023/05/30 01:29:39;;;;;;;6.50;4.73;;;;;;;13.24;56.87;101713.06;4860760;29;20444;-70
2023/05/30 01:32:10;;;;;;;7.53;4.13;;;;;;;13.20;56.83;101711.81;4862351;29;20423;-71
2023/05/30 01:34:39;;;;;;;5.97;4.00;;;;;;;13.01;56.46;101707.88;4860356;29;20471;-70
2023/05/30 01:37:08;;;;;;;6.90;3.43;;;;;;;13.11;56.87;101705.69;4860450;29;20448;-69
2023/05/30 01:39:39;;;;;;;5.20;3.27;;;;;;;13.14;57.17;101716.16;4890487;29;20968;-70
2023/05/30 01:42:16;;;;;;;7.53;3.10;;;;;;;12.76;58.11;101714.78;4857978;29;20442;-69
2023/05/30 01:44:58;;;;;;;7.87;3.10;;;;;;;12.94;58.50;101712.41;4853609;29;20888;-68
2023/05/30 01:47:39;;;;;;;4.80;2.30;;;;;;;12.45;58.25;101707.00;4860326;29;20538;-70
2023/05/30 01:50:14;;;;;;;6.73;3.07;;;;;;;12.49;60.07;101714.53;4857446;29;20873;-68
2023/05/30 01:52:51;;;;;;;4.20;2.20;;;;;;;12.72;58.23;101716.22;4869707;29;20459;-68
2023/05/30 01:55:21;;;;;;;7.37;3.20;;;;;;;12.56;59.26;101715.47;4860323;29;20895;-70
2023/05/30 01:57:52;;;;;;;7.17;3.10;;;;;;;12.83;58.54;101721.13;4874647;29;20462;-72
2023/05/30 02:00:28;;;;;;;4.90;2.47;;;;;;;12.11;60.15;101718.53;4874757;29;20812;-70
2023/05/30 02:02:58;;;;;;;5.07;3.07;;;;;;;12.31;59.74;101726.91;4858885;29;20407;-70
2023/05/30 02:05:27;;;;;;;4.07;2.70;;;;;;;12.42;59.79;101710.09;4859583;29;20467;-70
2023/05/30 02:07:57;;;;;;;9.73;3.47;;;;;;;12.54;59.17;101706.66;4890942;29;20410;-70
2023/05/30 02:10:26;;;;;;;8.27;3.93;;;;;;;12.75;60.16;101713.09;4854681;29;20419;-69
2023/05/30 02:12:55;;;;;;;11.43;4.23;;;;;;;13.19;58.17;101710.13;4888419;29;20514;-69
2023/05/30 02:15:24;;;;;;;5.87;2.37;;;;;;;13.12;58.91;101712.78;4865774;29;20477;-68
2023/05/30 02:17:54;;;;;;;7.27;3.70;;;;;;;13.18;57.80;101712.00;4859487;29;20471;-69
2023/05/30 02:20:23;;;;;;;7.63;3.00;;;;;;;13.10;59.32;101717.56;4862342;29;20799;-70
2023/05/30 02:22:53;;;;;;;5.03;2.50;;;;;;;13.01;59.16;101718.75;4863388;29;20415;-70
2023/05/30 02:25:23;;;;;;;4.47;2.23;;;;;;;12.91;58.53;101720.97;4864650;29;20533;-69
2023/05/30 02:27:52;;;;;;;5.67;2.73;;;;;;;12.99;58.46;101709.94;4860386;29;20528;-68
2023/05/30 02:30:21;;;;;;;8.50;2.77;;;;;;;13.09;58.75;101718.59;4874162;29;20451;-69
2023/05/30 02:32:50;;;;;;;3.90;2.60;;;;;;;13.20;58.58;101712.63;4873764;29;20415;-69
2023/05/30 02:35:22;;;;;;;3.80;2.73;;;;;;;12.67;59.02;101715.97;4859799;29;21050;-70
2023/05/30 02:37:51;;;;;;;6.93;2.83;;;;;;;13.16;59.54;101711.38;4858788;29;20482;-70
2023/05/30 02:40:21;;;;;;;4.73;2.63;;;;;;;13.42;58.34;101711.50;4874008;29;20933;-70
2023/05/30 02:42:50;;;;;;;7.10;2.80;;;;;;;13.39;58.06;101706.47;4859215;29;20497;-68
2023/05/30 02:45:19;;;;;;;5.47;3.03;;;;;;;13.26;58.32;101716.44;4874749;29;20474;-70
2023/05/30 02:47:48;;;;;;;9.17;3.13;;;;;;;13.04;58.83;101712.91;4858289;29;20426;-70
2023/05/30 02:50:18;;;;;;;5.17;3.07;;;;;;;12.84;59.49;101728.22;4882229;29;20472;-70
2023/05/30 02:52:48;;;;;;;5.27;2.40;;;;;;;13.01;59.62;101718.75;4874081;29;20427;-69
2023/05/30 02:55:17;;;;;;;4.20;2.03;;;;;;;12.87;59.70;101716.97;4889978;29;20488;-69
2023/05/30 02:58:23;;;;;;;4.77;4.03;;;;;;;13.10;59.43;101714.84;4864206;29;20426;-71
2023/05/30 03:01:11;;;;;;;6.70;2.97;;;;;;;12.84;59.55;101722.78;4873513;29;20951;-68
2023/05/30 03:03:41;;;;;;;5.73;2.60;;;;;;;12.84;59.87;101728.22;4858021;29;20423;-70
2023/05/30 03:06:20;;;;;;;10.77;4.70;;;;;;;12.63;60.56;101726.41;4858812;29;20453;-71
2023/05/30 03:09:03;;;;;;;11.70;3.23;;;;;;;12.45;60.26;101723.28;4858331;29;20462;-70
2023/05/30 03:11:34;;;;;;;8.53;4.70;;;;;;;12.69;60.28;101724.75;4863757;29;20934;-70
2023/05/30 03:14:04;;;;;;;8.70;3.47;;;;;;;12.80;60.26;101732.38;4860907;29;20483;-70
2023/05/30 03:16:32;;;;;;;9.90;4.03;;;;;;;13.09;59.61;101729.47;4862568;29;20434;-70
2023/05/30 03:19:03;;;;;;;8.40;3.13;;;;;;;13.32;58.95;101734.66;4877907;29;21004;-69
2023/05/30 03:21:36;;;;;;;12.60;3.23;;;;;;;13.49;58.28;101745.03;4877953;29;20426;-69
2023/05/30 03:24:08;;;;;;;4.50;2.70;;;;;;;13.66;58.21;101747.38;4865007;29;20415;-69
2023/05/30 03:26:43;;;;;;;8.53;2.80;;;;;;;13.67;57.40;101746.34;4893090;29;20531;-70
2023/05/30 03:29:14;;;;;;;5.00;3.20;;;;;;;13.77;56.95;101750.38;4877137;29;20423;-69
2023/05/30 03:31:44;;;;;;;4.03;2.83;;;;;;;13.97;57.44;101745.03;4862711;29;20562;-69
2023/05/30 03:34:13;;;;;;;7.87;2.90;;;;;;;14.92;54.98;101744.78;4869249;29;20447;-68
2023/05/30 03:36:45;;;;;;;8.30;3.20;;;;;;;15.25;54.05;101741.22;4863100;29;20471;-70
2023/05/30 03:39:16;;;;;;;3.80;2.73;;;;;;;15.65;52.75;101742.81;4877760;29;20452;-70
2023/05/30 03:41:45;;;;;;;4.80;2.50;;;;;;;16.78;50.16;101744.72;4893584;29;20448;-69
2023/05/30 03:44:14;;;;;;;8.00;3.23;;;;;;;17.42;48.30;101746.22;4863418;29;20444;-69
2023/05/30 03:46:43;;;;;;;4.83;3.03;;;;;;;17.92;47.09;101749.66;4867325;29;20476;-69
2023/05/30 03:49:12;;;;;;;5.07;2.60;;;;;;;18.28;46.56;101751.50;4863229;29;20475;-70
2023/05/30 03:51:41;;;;;;;12.00;3.80;;;;;;;18.68;45.28;101749.03;4863511;29;20443;-69
2023/05/30 03:54:10;;;;;;;6.23;2.80;;;;;;;18.84;45.08;101745.59;4864793;29;20472;-68
2023/05/30 03:56:42;;;;;;;5.67;2.70;;;;;;;18.77;45.13;101753.13;4873122;29;20468;-70
2023/05/30 03:59:11;;;;;;;5.67;1.93;;;;;;;18.79;45.04;101761.09;4873107;29;20471;-69
2023/05/30 04:01:40;;;;;;;4.00;2.80;;;;;;;18.97;44.49;101755.53;4880077;29;20672;-68
2023/05/30 04:04:10;;;;;;;5.60;2.90;;;;;;;19.53;43.52;101761.28;4860283;29;20985;-70
2023/05/30 04:06:39;;;;;;;5.73;2.90;;;;;;;19.78;42.96;101762.91;4878060;29;20557;-68
2023/05/30 04:09:09;;;;;;;5.30;3.40;;;;;;;19.74;43.18;101761.72;4862534;29;20445;-69
2023/05/30 04:11:38;;;;;;;4.50;2.43;;;;;;;19.74;43.04;101767.22;4895855;29;20426;-71
2023/05/30 04:14:09;;;;;;;11.20;3.40;;;;;;;19.08;44.02;101765.66;4867068;29;20884;-70
2023/05/30 04:16:38;;;;;;;4.93;2.67;;;;;;;19.31;44.40;101768.44;4876175;29;20439;-69
2023/05/30 04:19:07;;;;;;;5.40;3.27;;;;;;;19.60;43.80;101774.06;4860519;29;20469;-70
2023/05/30 04:21:36;;;;;;;9.10;4.80;;;;;;;20.20;42.74;101775.31;4875949;29;20452;-69
2023/05/30 04:24:07;;;;;;;7.80;3.27;;;;;;;20.14;42.30;101779.03;4862085;29;20916;-70
2023/05/30 04:26:37;;;;;;;4.73;3.13;;;;;;;19.85;43.23;101778.16;4859700;29;20470;-70
2023/05/30 04:29:09;;;;;;;6.33;2.90;;;;;;;19.63;43.63;101776.31;4860645;29;20451;-70
2023/05/30 04:31:40;;;;;;;5.40;2.50;;;;;;;19.71;42.69;101778.66;4868366;29;20462;-69
2023/05/30 04:34:10;;;;;;;5.73;3.10;;;;;;;20.26;41.38;101774.34;4861677;29;20418;-69
2023/05/30 04:36:40;;;;;;;7.70;5.30;;;;;;;20.47;41.12;101775.63;4861557;29;20444;-70
2023/05/30 04:39:09;;;;;;;10.53;2.70;;;;;;;20.75;40.11;101780.22;4864675;29;20546;-70
2023/05/30 04:41:40;;;;;;;7.50;3.47;;;;;;;20.99;40.36;101778.16;4862064;29;20832;-71
2023/05/30 04:44:10;;;;;;;10.30;3.40;;;;;;;20.27;40.46;101777.94;4891415;29;20874;-70
2023/05/30 04:46:40;;;;;;;8.43;2.90;;;;;;;20.68;40.09;101785.03;4865444;29;20503;-70
2023/05/30 04:49:09;;;;;;;6.10;2.60;;;;;;;20.79;40.13;101784.16;4865200;29;20449;-70
2023/05/30 04:51:38;;;;;;;3.73;2.17;;;;;;;21.02;38.70;101781.25;4892559;29;20482;-70
2023/05/30 04:54:07;;;;;;;4.80;2.60;;;;;;;20.70;39.72;101782.91;4863158;29;20410;-69
2023/05/30 04:56:38;;;;;;;5.27;3.03;;;;;;;21.50;37.87;101785.31;4863414;29;20442;-71
2023/05/30 04:59:07;;;;;;;4.93;2.60;;;;;;;19.75;39.66;101782.63;4863161;29;20432;-69
2023/05/30 05:01:38;;;;;;;7.30;2.90;;;;;;;20.20;39.22;101789.06;4891492;29;20447;-71
2023/05/30 05:04:07;;;;;;;6.60;3.10;;;;;;;20.72;38.83;101787.06;4862172;29;20981;-70
2023/05/30 05:06:37;;;;;;;3.90;2.30;;;;;;;21.06;37.08;101792.56;4862714;29;20471;-70
2023/05/30 05:09:06;;;;;;;5.87;2.47;;;;;;;21.83;36.29;101789.94;4895132;29;20456;-70
2023/05/30 05:11:35;;;;;;;7.60;3.27;;;;;;;20.93;37.41;101791.00;4871124;29;20432;-69
2023/05/30 05:14:04;;;;;;;4.10;2.50;;;;;;;21.18;37.43;101794.22;4863539;29;20443;-68
2023/05/30 05:16:33;;;;;;;5.70;2.60;;;;;;;21.84;36.20;101792.41;4853686;29;20463;-72
2023/05/30 05:19:04;;;;;;;6.27;2.80;;;;;;;21.98;35.93;101796.47;4862058;29;20526;-71
2023/05/30 05:21:33;;;;;;;7.10;3.20;;;;;;;21.52;36.17;101796.91;4874057;29;20431;-69
2023/05/30 05:24:03;;;;;;;6.90;2.00;;;;;;;21.38;36.79;101801.13;4862372;29;20421;-69
2023/05/30 05:26:32;;;;;;;5.77;2.67;;;;;;;22.37;35.73;101811.00;4874980;29;20437;-71
2023/05/30 05:29:01;;;;;;;3.57;2.50;;;;;;;21.81;36.34;101805.88;4864399;29;20852;-70
2023/05/30 05:31:32;;;;;;;7.73;2.40;;;;;;;20.70;37.84;101804.91;4893547;29;20975;-70
2023/05/30 05:34:03;;;;;;;5.90;2.97;;;;;;;18.10;42.90;101814.56;4863200;29;20513;-71
2023/05/30 05:36:32;;;;;;;9.63;2.83;;;;;;;16.40;46.62;101804.84;4867642;29;20478;-70
2023/05/30 05:39:01;;;;;;;3.90;2.20;;;;;;;15.84;48.92;101801.94;4866719;29;20422;-70
2023/05/30 05:41:32;;;;;;;3.23;2.30;;;;;;;15.47;50.03;101810.81;4867700;29;20524;-69
2023/05/30 05:44:01;;;;;;;6.13;2.90;;;;;;;15.23;51.28;101802.25;4865110;29;20449;-70
2023/05/30 05:46:30;;;;;;;15.93;3.23;;;;;;;15.43;51.65;101801.38;4879288;29;20643;-69
2023/05/30 05:48:59;;;;;;;3.43;2.20;;;;;;;15.28;50.71;101806.22;4863280;29;20851;-69
2023/05/30 05:51:31;;;;;;;5.63;2.83;;;;;;;14.80;52.00;101814.59;4862926;29;20449;-70
2023/05/30 05:54:00;;;;;;;7.10;2.67;;;;;;;14.72;52.65;101812.06;4862694;29;20820;-69
2023/05/30 05:56:29;;;;;;;5.10;2.50;;;;;;;14.80;52.80;101811.88;4863196;29;20877;-69
2023/05/30 05:58:59;;;;;;;9.53;3.20;;;;;;;15.09;52.04;101813.38;4863639;29;20415;-70
2023/05/30 06:01:28;;;;;;;8.83;2.43;;;;;;;15.13;51.47;101812.72;4875836;29;20462;-72
2023/05/30 06:03:57;;;;;;;10.00;3.40;;;;;;;15.03;51.99;101804.13;4862621;29;20493;-71
2023/05/30 06:06:26;;;;;;;5.63;3.03;;;;;;;14.82;52.16;101804.31;4861720;29;20468;-71
2023/05/30 06:08:58;;;;;;;11.33;5.07;;;;;;;15.00;51.95;101804.56;4861296;29;20419;-70
2023/05/30 06:11:27;;;;;;;10.90;2.90;;;;;;;15.23;51.22;101809.59;4862167;29;20523;-71
2023/05/30 06:13:56;;;;;;;4.80;2.90;;;;;;;15.27;51.58;101815.44;4869743;29;20439;-70
2023/05/30 06:16:25;;;;;;;14.33;2.50;;;;;;;15.42;51.17;101810.63;4872674;29;20477;-70
2023/05/30 06:18:55;;;;;;;8.10;2.37;;;;;;;15.60;50.67;101819.00;4872198;29;20459;-69
2023/05/30 06:21:24;;;;;;;4.23;3.33;;;;;;;15.76;50.74;101821.28;4870452;29;20419;-68
2023/05/30 06:23:53;;;;;;;4.70;2.00;;;;;;;15.84;50.64;101821.03;4868598;29;20518;-69
2023/05/30 06:26:24;;;;;;;7.17;3.40;;;;;;;16.06;50.32;101818.88;4867971;29;20860;-67
2023/05/30 06:28:53;;;;;;;6.50;3.20;;;;;;;16.31;50.34;101819.00;4861168;29;20458;-70
2023/05/30 06:31:22;;;;;;;13.63;3.20;;;;;;;16.39;49.48;101824.19;4888946;29;20544;-68
2023/05/30 06:33:51;;;;;;;6.60;2.73;;;;;;;16.41;50.18;101816.63;4859653;29;20440;-69
2023/05/30 06:36:20;;;;;;;4.33;2.33;;;;;;;16.35;49.49;101821.06;4859711;29;20486;-69
2023/05/30 06:38:51;;;;;;;8.10;2.70;;;;;;;16.39;49.49;101821.47;4860047;29;20975;-68
2023/05/30 06:41:20;;;;;;;5.37;2.40;;;;;;;16.32;49.28;101821.47;4860030;29;20439;-69
2023/05/30 06:43:50;;;;;;;4.40;2.53;;;;;;;16.26;49.06;101816.91;4865357;29;20436;-69
2023/05/30 06:46:20;;;;;;;4.43;2.00;;;;;;;16.37;49.27;101815.38;4866122;29;20489;-70
2023/05/30 06:48:49;;;;;;;8.43;2.13;;;;;;;16.44;49.55;101818.91;4862322;29;20411;-69
2023/05/30 06:51:18;;;;;;;4.37;2.20;;;;;;;16.59;49.19;101826.84;4865463;29;20419;-70
2023/05/30 06:53:48;;;;;;;3.87;2.10;;;;;;;16.56;48.68;101821.75;4880242;29;20502;-69
2023/05/30 06:56:17;;;;;;;5.10;2.37;;;;;;;16.63;49.14;101830.81;4865272;29;20481;-69
2023/05/30 06:58:46;;;;;;;7.00;2.20;;;;;;;16.66;48.57;101842.13;4871448;29;20410;-68
2023/05/30 07:01:16;;;;;;;7.00;1.97;;;;;;;16.60;49.04;101840.31;4865665;29;20471;-70
2023/05/30 07:03:46;;;;;;;9.53;2.10;;;;;;;16.55;48.62;101840.09;4868444;29;20421;-70
2023/05/30 07:06:15;;;;;;;6.30;2.87;;;;;;;16.66;49.43;101841.28;4867809;29;20448;-69
2023/05/30 07:08:44;;;;;;;5.27;2.27;;;;;;;16.98;48.60;101836.69;4867300;29;20420;-70
2023/05/30 07:11:13;;;;;;;4.27;2.03;;;;;;;17.09;47.58;101838.72;4867700;29;20399;-69
2023/05/30 07:13:42;;;;;;;5.60;2.07;;;;;;;17.22;47.19;101842.16;4864288;29;20453;-69
2023/05/30 07:16:12;;;;;;;6.80;2.30;;;;;;;17.04;47.55;101844.00;4863762;29;20496;-70
2023/05/30 07:18:42;;;;;;;9.53;1.80;;;;;;;16.66;47.46;101839.41;4864657;29;20467;-71
2023/05/30 07:21:12;;;;;;;9.50;2.10;;;;;;;17.03;47.44;101840.44;4871233;29;20454;-70
2023/05/30 07:23:41;;;;;;;8.00;2.87;;;;;;;17.01;47.51;101838.97;4868409;29;20416;-71
2023/05/30 07:26:11;;;;;;;4.00;2.07;;;;;;;16.87;47.60;101841.81;4872780;29;20524;-70
2023/05/30 07:28:40;;;;;;;2.77;1.70;;;;;;;17.06;47.09;101841.88;4867270;29;20426;-71
2023/05/30 07:31:09;;;;;;;5.90;2.27;;;;;;;17.39;46.26;101836.97;4868194;29;20489;-71
2023/05/30 07:33:38;;;;;;;15.53;4.03;;;;;;;17.74;45.56;101845.50;4871475;29;20449;-71
2023/05/30 07:36:09;;;;;;;6.20;2.43;;;;;;;17.64;42.63;101853.38;4877555;29;21042;-70
2023/05/30 07:38:38;;;;;;;4.53;1.80;;;;;;;17.42;44.41;101844.75;4871891;29;20470;-69
2023/05/30 07:41:07;;;;;;;8.57;2.60;;;;;;;17.70;44.65;101852.50;4881712;29;20457;-70
2023/05/30 07:43:36;;;;;;;4.43;2.13;;;;;;;17.65;43.64;101846.84;4876185;29;20438;-69
2023/05/30 07:46:05;;;;;;;3.87;2.20;;;;;;;17.61;44.05;101849.22;4891841;29;20455;-70
2023/05/30 07:48:34;;;;;;;5.70;2.10;;;;;;;17.88;44.33;101848.94;4879087;29;20414;-69
2023/05/30 07:51:03;;;;;;;3.93;2.10;;;;;;;17.83;43.99;101855.09;4870947;29;20406;-70
2023/05/30 07:53:36;;;;;;;4.43;2.20;;;;;;;17.74;44.40;101849.06;4867641;29;20474;-71
2023/05/30 07:56:06;;;;;;;7.57;2.33;;;;;;;18.00;43.82;101849.84;4870116;29;20533;-69
2023/05/30 07:58:35;;;;;;;4.27;2.50;;;;;;;18.17;43.71;101851.75;4867601;29;20855;-70
2023/05/30 08:01:05;;;;;;;7.20;3.17;;;;;;;18.39;43.62;101846.63;4883655;29;20964;-69
2023/05/30 08:03:35;;;;;;;6.97;2.73;;;;;;;18.70;42.10;101848.34;4885597;29;20889;-69
2023/05/30 08:06:04;;;;;;;6.50;2.37;;;;;;;18.77;41.66;101848.25;4874669;29;20442;-70
2023/05/30 08:08:35;;;;;;;4.53;2.23;;;;;;;18.75;42.27;101851.22;4879710;29;20445;-69
2023/05/30 08:11:04;;;;;;;8.53;2.43;;;;;;;18.63;42.70;101851.19;4874915;29;20406;-69
2023/05/30 08:13:33;;;;;;;7.30;2.20;;;;;;;18.85;42.27;101850.66;4872473;29;20429;-71
2023/05/30 08:16:02;;;;;;;5.90;2.83;;;;;;;19.03;41.43;101853.31;4866038;29;20528;-70
2023/05/30 08:18:31;;;;;;;5.93;2.80;;;;;;;19.10;41.77;101854.06;4870295;29;20437;-68
2023/05/30 08:21:01;;;;;;;6.00;1.93;;;;;;;18.59;41.51;101846.38;4863340;29;20414;-69
2023/05/30 08:23:30;;;;;;;6.03;2.90;;;;;;;18.64;41.95;101838.28;4861682;29;20535;-69
2023/05/30 08:26:01;;;;;;;5.43;2.63;;;;;;;18.30;42.89;101852.66;4862083;29;20551;-70
2023/05/30 08:28:30;;;;;;;5.90;2.13;;;;;;;18.93;41.58;101847.56;4866232;29;20441;-69
2023/05/30 08:30:59;;;;;;;10.00;3.00;;;;;;;18.77;40.52;101840.03;4862126;29;20429;-71
2023/05/30 08:33:29;;;;;;;4.20;1.90;;;;;;;19.06;40.70;101848.22;4866037;29;20938;-70
2023/05/30 08:35:58;;;;;;;7.23;2.03;;;;;;;18.79;39.75;101844.19;4865403;29;20438;-68
2023/05/30 08:38:27;;;;;;;7.43;2.63;;;;;;;18.91;39.93;101849.72;4861581;29;20973;-70
2023/05/30 08:40:56;;;;;;;6.30;2.97;;;;;;;18.65;40.34;101839.97;4861562;29;20454;-70
2023/05/30 08:43:27;;;;;;;9.50;2.43;;;;;;;18.84;40.43;101849.81;4863809;29;20466;-70
2023/05/30 08:45:58;;;;;;;7.63;2.47;;;;;;;19.15;39.38;101854.19;4878749;29;20667;-69
2023/05/30 08:48:32;;;;;;;5.63;2.40;;;;;;;19.06;38.62;101858.34;4868227;29;20784;-70
2023/05/30 08:51:02;;;;;;;6.13;2.50;;;;;;;19.16;38.91;101853.13;4861567;29;20414;-70
2023/05/30 08:53:38;;;;;;;9.37;3.67;;;;;;;19.35;38.87;101851.13;4860905;29;20531;-69
2023/05/30 08:56:12;;;;;;;6.30;2.70;;;;;;;19.46;38.65;101851.16;4864618;29;20460;-70
2023/05/30 08:58:47;;;;;;;8.20;3.90;;;;;;;19.13;39.05;101852.75;4861084;29;20411;-69
2023/05/30 09:01:17;;;;;;;4.90;2.37;;;;;;;19.38;39.04;101851.47;4861083;29;20506;-70
2023/05/30 09:03:48;;;;;;;5.30;2.00;;;;;;;19.36;39.05;101848.16;4864126;29;20459;-69
2023/05/30 09:06:18;;;;;;;4.00;2.40;;;;;;;19.45;39.22;101852.25;4861619;29;20452;-68
2023/05/30 09:08:48;;;;;;;5.03;2.30;;;;;;;19.33;39.09;101840.38;4861676;29;20999;-69
2023/05/30 09:11:18;;;;;;;5.87;2.47;;;;;;;19.06;39.50;101850.97;4864179;29;20422;-69
2023/05/30 09:13:49;;;;;;;6.70;2.40;;;;;;;19.43;39.53;101848.00;4867464;29;20440;-69
2023/05/30 09:16:18;;;;;;;3.90;2.10;;;;;;;19.63;39.08;101839.47;4863768;29;20438;-68
2023/05/30 09:18:47;;;;;;;4.47;2.53;;;;;;;19.57;38.86;101843.16;4861393;29;20454;-69
2023/05/30 09:21:16;;;;;;;4.23;2.37;;;;;;;19.57;38.16;101848.66;4862692;29;20419;-70
2023/05/30 09:23:46;;;;;;;3.60;1.90;;;;;;;19.70;38.25;101849.25;4861491;29;20479;-69
2023/05/30 09:26:18;;;;;;;6.47;2.60;;;;;;;19.67;38.29;101848.88;4861105;29;20536;-71
2023/05/30 09:28:49;;;;;;;3.87;2.33;;;;;;;19.79;38.43;101852.47;4869554;29;20410;-70
2023/05/30 09:31:18;;;;;;;7.53;2.30;;;;;;;19.69;37.91;101854.97;4862989;29;20418;-69
2023/05/30 09:33:50;;;;;;;5.43;2.07;;;;;;;19.93;37.96;101851.97;4860384;29;20418;-69
2023/05/30 09:36:21;;;;;;;7.80;2.43;;;;;;;20.15;37.90;101848.56;4868065;29;20512;-69
2023/05/30 09:38:55;;;;;;;11.13;2.57;;;;;;;20.36;36.62;101856.22;4867332;29;20444;-68
2023/05/30 09:41:25;;;;;;;6.00;2.77;;;;;;;20.58;36.34;101845.34;4881430;29;20431;-69
2023/05/30 09:43:57;;;;;;;5.50;3.43;;;;;;;20.22;36.72;101852.03;4860346;29;20829;-70
2023/05/30 09:46:27;;;;;;;5.93;2.00;;;;;;;20.11;36.54;101845.50;4860238;29;20446;-69
2023/05/30 09:48:57;;;;;;;2.80;2.03;;;;;;;20.42;36.16;101851.66;4869751;29;20433;-70
2023/05/30 09:51:29;;;;;;;4.20;2.13;;;;;;;20.38;36.05;101857.63;4871472;29;20415;-70
2023/05/30 09:54:01;;;;;;;5.97;2.33;;;;;;;20.19;35.87;101852.50;4862060;29;20436;-67
2023/05/30 09:56:33;;;;;;;4.80;2.70;;;;;;;20.18;35.91;101851.69;4903171;29;20822;-70
2023/05/30 09:59:06;;;;;;;8.17;2.90;;;;;;;20.12;35.74;101858.16;4876065;29;20445;-70
2023/05/30 10:01:38;;;;;;;7.20;2.73;;;;;;;20.34;35.98;101859.19;4863473;29;20497;-68
2023/05/30 10:04:15;;;;;;;8.43;2.10;;;;;;;20.29;35.49;101859.06;4860436;29;20461;-70
2023/05/30 10:06:45;;;;;;;5.47;2.20;;;;;;;20.36;35.87;101864.47;4868989;29;20430;-69
2023/05/30 10:09:15;;;;;;;10.33;3.60;;;;;;;20.35;36.22;101852.63;4894209;29;20481;-69
2023/05/30 10:11:45;;;;;;;6.40;2.40;;;;;;;20.15;35.55;101852.16;4860232;29;20406;-70
2023/05/30 10:14:16;;;;;;;4.63;2.80;;;;;;;20.08;35.94;101856.97;4853937;29;20831;-69
2023/05/30 10:16:48;;;;;;;9.17;3.17;;;;;;;20.24;35.25;101850.69;4859744;29;20436;-70
2023/05/30 10:19:21;;;;;;;4.33;2.97;;;;;;;20.34;35.91;101850.94;4857697;29;20502;-68
2023/05/30 10:21:51;;;;;;;5.10;2.33;;;;;;;20.72;34.95;101852.25;4863457;29;20414;-69
2023/05/30 10:24:22;;;;;;;8.93;2.70;;;;;;;20.42;35.43;101862.66;4858816;29;20415;-70
2023/05/30 10:26:56;;;;;;;7.23;3.00;;;;;;;20.58;35.48;101856.34;4859534;29;20416;-67
2023/05/30 10:29:30;;;;;;;5.43;2.00;;;;;;;20.58;34.71;101857.19;4859646;29;20403;-70
2023/05/30 10:32:03;;;;;;;5.37;3.23;;;;;;;20.57;35.13;101851.97;4878006;29;20523;-70
2023/05/30 10:34:42;;;;;;;6.07;3.00;;;;;;;20.79;33.85;101845.50;4859468;29;20474;-69
2023/05/30 10:37:12;;;;;;;5.17;2.50;;;;;;;21.04;33.18;101852.56;4865989;29;20444;-69
2023/05/30 10:40:06;;;;;;;6.90;2.80;;;;;;;21.05;33.20;101851.47;4866015;29;20449;-73
2023/05/30 10:42:42;;;;;;;7.33;2.40;;;;;;;21.24;33.07;101845.53;4868699;29;20469;-70
2023/05/30 10:45:18;;;;;;;5.80;2.60;;;;;;;21.14;33.77;101845.34;4856771;29;20993;-70
2023/05/30 10:47:55;;;;;;;3.50;2.30;;;;;;;21.30;33.04;101837.34;4863436;29;20408;-69
2023/05/30 10:50:31;;;;;;;5.87;2.23;;;;;;;21.03;33.52;101848.13;4866303;29;20460;-70
2023/05/30 10:53:00;;;;;;;5.20;2.83;;;;;;;21.12;32.44;101850.22;4859650;29;20441;-70
2023/05/30 10:55:29;;;;;;;8.27;3.20;;;;;;;20.89;33.52;101852.28;4877808;29;20469;-70
2023/05/30 10:57:59;;;;;;;4.80;2.60;;;;;;;20.97;32.04;101849.13;4863894;29;20472;-70
2023/05/30 11:00:31;;;;;;;6.57;2.63;;;;;;;20.64;32.53;101845.22;4866587;29;20494;-71
2023/05/30 11:03:01;;;;;;;4.30;2.23;;;;;;;20.85;32.75;101846.44;4873049;29;20407;-69
2023/05/30 11:05:33;;;;;;;5.90;2.90;;;;;;;21.00;33.14;101843.97;4872575;29;20856;-70
2023/05/30 11:08:04;;;;;;;8.43;1.83;;;;;;;21.03;33.21;101848.97;4856446;29;20797;-71
2023/05/30 11:10:35;;;;;;;4.07;2.20;;;;;;;21.15;32.72;101841.50;4860552;29;20972;-70
2023/05/30 11:13:14;;;;;;;5.17;2.30;;;;;;;21.18;31.68;101838.25;4859283;29;20422;-69
2023/05/30 11:15:46;;;;;;;3.03;2.00;;;;;;;21.28;32.10;101840.34;4851739;29;20485;-69
2023/05/30 11:18:17;;;;;;;3.10;2.10;;;;;;;21.44;32.30;101839.50;4861940;29;20444;-69
2023/05/30 11:20:53;;;;;;;3.97;2.53;;;;;;;21.37;32.28;101849.00;4867352;29;20437;-70
2023/05/30 11:23:24;;;;;;;6.37;2.90;;;;;;;21.04;32.75;101844.31;4859342;29;20403;-70
2023/05/30 11:25:54;;;;;;;4.77;2.07;;;;;;;21.25;33.23;101841.66;4888696;23;20776;-69
2023/05/30 11:28:36;;;;;;;4.83;2.53;;;;;;;21.58;32.57;101840.00;4879381;29;20491;-69
2023/05/30 11:31:19;;;;;;;3.67;2.23;;;;;;;21.40;32.97;101837.47;4876258;29;20977;-70
2023/05/30 11:33:51;;;;;;;3.90;2.60;;;;;;;21.43;32.81;101837.00;4874545;29;20437;-68
2023/05/30 11:36:22;;;;;;;3.70;1.80;;;;;;;21.48;32.68;101846.16;4878385;29;20458;-68
2023/05/30 11:38:53;;;;;;;3.93;2.17;;;;;;;21.34;32.91;101842.09;4875411;29;20553;-68
2023/05/30 11:41:26;;;;;;;3.50;2.33;;;;;;;21.22;33.22;101844.91;4875737;29;20818;-66